Time;durP1;ratioP1;P1;durP2;ratioP2;P2;SDS_P1;SDS_P2;PMS_P1;PMS_P2;Temp;Humidity;BMP_temperature;BMP_pressure;BME280_temperature;BME280_humidity;BME280_pressure;Samples;Min_cycle;Max_cycle;Signal;HPM_P1;HPM_P2
2022/04/17 00:00:15;;;;;;;1.57;1.37;;;4.90;99.90;;;;;;5065539;28;20249;-89
2022/04/17 00:02:41;;;;;;;1.43;1.37;;;4.90;99.90;;;;;;5066649;28;20286;-89
2022/04/17 00:05:08;;;;;;;3.13;2.10;;;4.80;99.90;;;;;;5067685;28;20255;-90
2022/04/17 00:07:35;;;;;;;2.47;1.40;;;4.70;99.90;;;;;;5065601;28;20217;-90
2022/04/17 00:10:01;;;;;;;1.97;1.87;;;4.60;99.90;;;;;;5066120;28;20228;-90
2022/04/17 00:12:27;;;;;;;1.90;1.80;;;4.60;99.90;;;;;;5046802;28;20222;-89
2022/04/17 00:14:57;;;;;;;2.27;1.40;;;4.60;99.90;;;;;;5047874;28;20259;-90
2022/04/17 00:17:23;;;;;;;2.20;1.40;;;4.50;99.90;;;;;;5047405;28;20229;-90
2022/04/17 00:19:49;;;;;;;5.37;1.73;;;4.50;99.90;;;;;;5049140;28;20194;-89
2022/04/17 00:22:15;;;;;;;0.90;0.90;;;4.50;99.90;;;;;;5066428;28;20217;-90
2022/04/17 00:24:42;;;;;;;3.27;2.53;;;4.50;99.90;;;;;;5081464;28;20236;-90
2022/04/17 00:27:08;;;;;;;1.30;1.20;;;4.60;99.90;;;;;;5066353;28;20324;-90
2022/04/17 00:29:35;;;;;;;3.53;2.13;;;4.60;99.90;;;;;;5082301;28;20233;-89
2022/04/17 00:32:00;;;;;;;3.77;1.70;;;4.60;99.90;;;;;;5066609;28;20217;-89
2022/04/17 00:34:29;;;;;;;1.30;1.17;;;4.60;99.90;;;;;;5065476;28;20636;-88
2022/04/17 00:36:59;;;;;;;4.57;1.53;;;4.50;99.90;;;;;;5047667;28;20213;-90
2022/04/17 00:39:25;;;;;;;2.67;1.87;;;4.50;99.90;;;;;;5064564;28;20221;-90
2022/04/17 00:41:51;;;;;;;1.10;1.10;;;4.40;99.90;;;;;;5081625;28;20221;-89
2022/04/17 00:44:17;;;;;;;1.40;1.33;;;4.40;99.90;;;;;;5065532;28;20195;-87
2022/04/17 00:46:42;;;;;;;1.50;1.43;;;4.30;99.90;;;;;;5065625;28;20221;-88
2022/04/17 00:49:09;;;;;;;3.23;2.63;;;4.30;99.90;;;;;;5082189;28;20231;-89
2022/04/17 00:51:36;;;;;;;1.90;1.70;;;4.30;99.90;;;;;;5065772;28;20217;-89
2022/04/17 00:54:07;;;;;;;1.80;1.70;;;4.30;99.90;;;;;;5065841;28;20217;-90
2022/04/17 00:56:34;;;;;;;1.63;1.53;;;4.30;99.90;;;;;;5066079;28;20556;-88
2022/04/17 00:59:03;;;;;;;3.97;2.30;;;4.20;99.90;;;;;;5047772;28;20208;-88
2022/04/17 01:01:33;;;;;;;2.83;2.63;;;4.20;99.90;;;;;;5047591;28;20216;-89
2022/04/17 01:04:03;;;;;;;2.87;2.00;;;4.10;99.90;;;;;;5047644;28;20556;-89
2022/04/17 01:06:30;;;;;;;3.67;2.17;;;4.10;99.90;;;;;;5065808;28;20235;-90
2022/04/17 01:08:57;;;;;;;2.37;1.60;;;4.10;99.90;;;;;;5055755;28;20227;-90
2022/04/17 01:11:23;;;;;;;1.83;1.63;;;4.00;99.90;;;;;;5064203;28;20199;-90
2022/04/17 01:13:50;;;;;;;1.23;1.13;;;4.00;99.90;;;;;;5048292;28;20193;-90
2022/04/17 01:16:19;;;;;;;1.50;1.50;;;4.00;99.90;;;;;;5064713;28;20225;-90
2022/04/17 01:18:57;;;;;;;1.67;1.40;;;3.90;99.90;;;;;;5064428;28;20229;-89
2022/04/17 01:21:26;;;;;;;1.67;1.57;;;3.80;99.90;;;;;;5064226;28;20225;-90
2022/04/17 01:26:56;;;;;;;2.53;1.53;;;3.70;99.90;;;;;;5078589;28;20221;-89
2022/04/17 01:29:26;;;;;;;2.40;2.20;;;3.60;99.90;;;;;;5064626;28;20284;-89
2022/04/17 01:31:53;;;;;;;2.43;2.10;;;3.60;99.90;;;;;;5048583;28;20178;-89
2022/04/17 01:34:21;;;;;;;1.50;1.40;;;3.60;99.90;;;;;;5066850;28;20213;-90
2022/04/17 01:36:49;;;;;;;1.90;1.80;;;3.60;99.90;;;;;;5066800;28;20714;-89
2022/04/17 01:39:15;;;;;;;1.17;1.17;;;3.60;99.90;;;;;;5066284;28;20304;-89
2022/04/17 01:41:41;;;;;;;3.07;1.43;;;3.70;99.90;;;;;;5069064;28;20331;-89
2022/04/17 01:44:07;;;;;;;4.03;3.63;;;3.60;99.90;;;;;;5052200;28;20611;-89
2022/04/17 01:46:34;;;;;;;1.93;1.73;;;3.60;99.90;;;;;;5044083;28;20760;-90
2022/04/17 01:49:00;;;;;;;2.33;2.13;;;3.60;99.90;;;;;;5050750;28;20240;-89
2022/04/17 01:51:26;;;;;;;3.57;3.13;;;3.60;99.90;;;;;;5051351;28;20217;-90
2022/04/17 01:53:52;;;;;;;2.20;2.00;;;3.50;99.90;;;;;;5083175;28;20275;-87
2022/04/17 01:56:18;;;;;;;3.53;3.10;;;3.50;99.90;;;;;;5066750;28;20193;-89
2022/04/17 01:58:44;;;;;;;3.07;1.67;;;3.40;99.90;;;;;;5066804;28;20687;-89
2022/04/17 02:01:10;;;;;;;3.07;1.97;;;3.40;99.90;;;;;;5067786;28;21029;-88
2022/04/17 02:03:35;;;;;;;4.57;2.83;;;3.40;99.90;;;;;;5069158;28;20220;-89
2022/04/17 02:06:01;;;;;;;2.27;2.17;;;3.30;99.90;;;;;;5050895;28;20993;-89
2022/04/17 02:08:31;;;;;;;8.77;4.70;;;3.50;99.90;;;;;;5085257;28;21136;-88
2022/04/17 02:10:57;;;;;;;1.73;1.63;;;3.60;99.90;;;;;;5051366;28;20243;-89
2022/04/17 02:13:23;;;;;;;2.37;2.17;;;3.80;99.90;;;;;;5067560;28;20209;-89
2022/04/17 02:15:49;;;;;;;3.90;2.10;;;3.80;99.90;;;;;;5069179;28;20226;-89
2022/04/17 02:18:16;;;;;;;3.60;3.30;;;3.80;99.90;;;;;;5050539;28;20244;-89
2022/04/17 02:20:42;;;;;;;2.47;2.37;;;3.80;99.90;;;;;;5067647;28;20806;-89
2022/04/17 02:23:08;;;;;;;3.73;2.10;;;3.80;99.90;;;;;;5051063;28;20284;-89
2022/04/17 02:25:34;;;;;;;2.63;2.20;;;3.80;99.90;;;;;;5068836;28;20225;-88
2022/04/17 02:27:59;;;;;;;3.27;2.33;;;3.80;99.90;;;;;;5049430;28;20757;-89
2022/04/17 02:30:25;;;;;;;4.77;2.30;;;3.80;99.90;;;;;;5083138;28;20885;-89
2022/04/17 02:32:51;;;;;;;2.30;2.20;;;3.80;99.90;;;;;;5049351;28;20221;-89
2022/04/17 02:35:16;;;;;;;2.17;1.90;;;3.90;99.90;;;;;;5067756;28;20186;-89
2022/04/17 02:37:43;;;;;;;2.03;1.93;;;3.80;99.90;;;;;;5050569;28;20703;-88
2022/04/17 02:40:09;;;;;;;2.60;2.40;;;3.80;99.90;;;;;;5050018;28;20279;-87
2022/04/17 02:42:34;;;;;;;2.93;2.70;;;3.70;99.90;;;;;;5050261;28;20217;-89
2022/04/17 02:45:00;;;;;;;2.50;1.80;;;3.60;99.90;;;;;;5065809;28;20726;-89
2022/04/17 02:47:45;;;;;;;3.37;3.07;;;3.60;99.90;;;;;;5074645;28;20201;-89
2022/04/17 02:50:12;;;;;;;2.07;1.83;;;3.70;99.90;;;;;;5050960;28;20293;-88
2022/04/17 02:52:38;;;;;;;2.57;2.37;;;3.80;99.90;;;;;;5059082;28;20308;-89
2022/04/17 02:55:05;;;;;;;3.17;2.97;;;3.80;99.90;;;;;;5067841;28;20703;-88
2022/04/17 02:57:31;;;;;;;2.87;2.57;;;3.80;99.90;;;;;;5068471;28;20217;-88
2022/04/17 02:59:58;;;;;;;3.40;3.10;;;3.80;99.90;;;;;;5066731;28;20675;-89
2022/04/17 03:07:54;;;;;;;2.80;2.60;;;3.70;99.90;;;;;;5081739;28;20247;-89
2022/04/17 03:10:20;;;;;;;1.93;1.77;;;3.60;99.90;;;;;;5049732;28;20233;-88
2022/04/17 03:12:46;;;;;;;3.10;2.87;;;3.50;99.90;;;;;;5049828;28;20220;-88
2022/04/17 03:15:11;;;;;;;3.83;2.63;;;3.50;99.90;;;;;;5049310;28;20225;-88
2022/04/17 03:17:37;;;;;;;2.80;2.23;;;3.30;99.90;;;;;;5066529;28;20272;-88
2022/04/17 03:20:04;;;;;;;7.03;2.33;;;3.20;99.90;;;;;;5083502;28;20258;-88
2022/04/17 03:22:31;;;;;;;2.70;2.47;;;3.20;99.90;;;;;;5043729;28;20271;-89
2022/04/17 03:25:00;;;;;;;2.37;2.10;;;3.10;99.90;;;;;;5067585;28;20251;-87
2022/04/17 03:27:26;;;;;;;2.20;1.67;;;3.00;99.90;;;;;;5083223;28;20232;-88
2022/04/17 03:29:52;;;;;;;1.83;1.73;;;3.10;99.90;;;;;;5048701;28;20225;-88
2022/04/17 03:32:18;;;;;;;2.43;2.10;;;3.00;99.90;;;;;;5066575;28;20217;-87
2022/04/17 03:34:44;;;;;;;2.03;1.90;;;3.00;99.90;;;;;;5066126;28;20231;-88
2022/04/17 03:37:10;;;;;;;2.83;1.83;;;3.10;99.90;;;;;;5065713;28;20236;-87
2022/04/17 03:39:35;;;;;;;1.87;1.73;;;3.00;99.90;;;;;;5049764;28;20643;-87
2022/04/17 03:42:02;;;;;;;2.53;2.33;;;2.90;99.90;;;;;;5049671;28;20300;-88
2022/04/17 03:44:27;;;;;;;4.63;2.20;;;2.90;99.90;;;;;;5066189;28;20189;-88
2022/04/17 03:46:53;;;;;;;1.57;1.47;;;2.90;99.90;;;;;;5066357;28;20555;-88
2022/04/17 03:49:19;;;;;;;3.37;3.07;;;2.90;99.90;;;;;;5049614;28;20213;-87
2022/04/17 03:51:44;;;;;;;3.13;2.40;;;2.90;99.90;;;;;;5082559;28;20681;-88
2022/04/17 03:54:10;;;;;;;1.87;1.77;;;2.90;99.90;;;;;;5049048;28;20213;-88
2022/04/17 03:56:36;;;;;;;2.40;2.20;;;2.90;99.90;;;;;;5065850;28;20223;-88
2022/04/17 03:59:02;;;;;;;2.17;1.97;;;2.90;99.90;;;;;;5083449;28;20696;-88
2022/04/17 04:01:29;;;;;;;1.83;1.73;;;3.00;99.90;;;;;;5065628;28;20225;-89
2022/04/17 04:03:55;;;;;;;3.63;3.20;;;3.10;99.90;;;;;;5065819;28;20741;-88
2022/04/17 04:06:21;;;;;;;2.13;2.00;;;3.10;99.90;;;;;;5057079;28;20311;-88
2022/04/17 04:08:48;;;;;;;2.63;2.37;;;3.20;99.90;;;;;;5066641;28;20217;-88
2022/04/17 04:11:15;;;;;;;3.10;2.00;;;3.20;99.90;;;;;;5067215;28;20189;-88
2022/04/17 04:13:42;;;;;;;3.27;1.93;;;3.20;99.90;;;;;;5049009;28;20246;-88
2022/04/17 04:16:08;;;;;;;1.00;1.00;;;3.20;99.90;;;;;;5047758;28;20342;-89
2022/04/17 04:18:34;;;;;;;2.40;2.30;;;3.00;99.90;;;;;;5048952;28;20326;-87
2022/04/17 04:21:00;;;;;;;5.40;3.73;;;3.00;99.90;;;;;;5081991;28;20575;-88
2022/04/17 04:23:26;;;;;;;2.47;2.37;;;3.00;99.90;;;;;;5065079;28;20270;-89
2022/04/17 04:25:52;;;;;;;2.73;2.00;;;3.00;99.90;;;;;;5067215;28;20193;-88
2022/04/17 04:28:33;;;;;;;4.17;2.63;;;3.00;99.90;;;;;;5065317;28;21098;-89
2022/04/17 04:31:08;;;;;;;1.30;1.27;;;3.00;99.90;;;;;;5047768;28;20217;-88
2022/04/17 04:33:35;;;;;;;2.63;1.70;;;3.00;99.90;;;;;;5048098;28;20232;-88
2022/04/17 04:36:02;;;;;;;2.50;2.40;;;2.90;99.90;;;;;;5064215;28;20225;-89
2022/04/17 04:38:28;;;;;;;3.40;3.07;;;2.90;99.90;;;;;;5047774;28;21083;-89
2022/04/17 04:40:54;;;;;;;2.40;2.20;;;2.80;99.90;;;;;;5048459;28;20193;-88
2022/04/17 04:43:20;;;;;;;2.93;2.27;;;2.70;99.90;;;;;;5046981;28;20736;-89
2022/04/17 04:51:15;;;;;;;4.20;3.03;;;2.60;99.90;;;;;;5064989;28;20228;-88
2022/04/17 04:53:41;;;;;;;1.67;1.57;;;2.60;99.90;;;;;;5048017;28;20217;-89
2022/04/17 04:56:08;;;;;;;1.87;1.70;;;2.60;99.90;;;;;;5048449;28;20224;-89
2022/04/17 04:58:34;;;;;;;1.97;1.70;;;2.70;99.90;;;;;;5056359;28;20213;-89
2022/04/17 05:01:00;;;;;;;2.43;2.33;;;2.70;99.90;;;;;;5063606;28;20216;-88
2022/04/17 05:03:26;;;;;;;3.47;2.17;;;2.70;99.90;;;;;;5064545;28;20237;-88
2022/04/17 05:05:52;;;;;;;1.63;1.53;;;2.80;99.90;;;;;;5047578;28;20583;-88
2022/04/17 05:08:21;;;;;;;2.97;2.60;;;2.80;99.90;;;;;;5047219;28;20259;-89
2022/04/17 05:10:47;;;;;;;2.63;1.77;;;2.80;99.90;;;;;;5066440;28;20189;-91
2022/04/17 05:13:14;;;;;;;1.67;1.57;;;2.90;99.90;;;;;;5040959;28;20227;-89
2022/04/17 05:15:40;;;;;;;2.47;2.37;;;3.00;99.90;;;;;;5081090;28;20293;-86
2022/04/17 05:18:07;;;;;;;2.37;2.27;;;3.10;99.90;;;;;;5064692;28;20320;-89
2022/04/17 05:20:34;;;;;;;2.13;2.03;;;3.30;99.90;;;;;;5047625;28;20338;-89
2022/04/17 05:23:52;;;;;;;2.60;2.43;;;3.60;99.90;;;;;;5066832;28;20188;-89
2022/04/17 05:26:04;;;;;;;2.07;1.97;;;4.00;99.90;;;;;;5045806;28;20225;-90
2022/04/17 05:28:30;;;;;;;3.90;3.60;;;4.00;99.90;;;;;;5047464;28;20209;-90
2022/04/17 05:30:58;;;;;;;2.17;1.97;;;4.00;99.90;;;;;;5065429;28;20213;-89
2022/04/17 05:33:25;;;;;;;2.73;2.53;;;4.10;99.90;;;;;;5047537;28;20228;-89
2022/04/17 05:35:52;;;;;;;1.37;1.27;;;4.30;99.90;;;;;;5046800;28;20233;-88
2022/04/17 05:38:20;;;;;;;6.83;2.23;;;4.50;99.90;;;;;;5049147;28;20181;-88
2022/04/17 05:40:49;;;;;;;2.80;2.60;;;4.80;99.90;;;;;;5065314;28;20189;-89
2022/04/17 05:43:16;;;;;;;2.43;1.83;;;5.30;99.90;;;;;;5080673;28;20225;-90
2022/04/17 05:45:41;;;;;;;2.47;2.33;;;5.90;99.90;;;;;;5080888;28;20221;-91
2022/04/17 05:48:11;;;;;;;4.63;3.07;;;6.20;99.90;;;;;;5081071;28;20693;-90
2022/04/17 05:50:38;;;;;;;1.83;1.73;;;6.70;99.90;;;;;;5063374;28;20669;-89
2022/04/17 05:53:04;;;;;;;2.40;2.27;;;7.30;99.90;;;;;;5047908;28;20244;-86
2022/04/17 05:55:30;;;;;;;3.53;2.83;;;7.70;99.90;;;;;;5046756;28;20701;-84
2022/04/17 05:57:55;;;;;;;2.40;2.20;;;7.80;99.90;;;;;;5064713;28;20252;-87
2022/04/17 06:00:21;;;;;;;5.63;3.13;;;8.10;99.90;;;;;;5061708;28;20244;-87
2022/04/17 06:02:48;;;;;;;3.80;2.93;;;8.60;99.90;;;;;;5043968;28;20233;-87
2022/04/17 06:05:15;;;;;;;1.80;1.70;;;9.00;99.90;;;;;;5062751;28;20247;-87
2022/04/17 06:07:41;;;;;;;3.70;2.77;;;9.10;99.90;;;;;;5046322;28;20266;-85
2022/04/17 06:10:09;;;;;;;4.43;3.17;;;9.00;99.90;;;;;;5079565;28;20229;-84
2022/04/17 06:12:36;;;;;;;4.90;3.43;;;9.40;99.90;;;;;;5047256;28;20226;-89
2022/04/17 06:15:03;;;;;;;5.13;4.07;;;9.90;99.90;;;;;;5063991;28;20319;-91
2022/04/17 06:17:36;;;;;;;4.30;3.83;;;9.80;99.90;;;;;;5079244;28;20328;-91
2022/04/17 06:20:06;;;;;;;2.47;2.20;;;10.10;99.90;;;;;;5084379;28;20189;-91
2022/04/17 06:22:35;;;;;;;3.47;2.33;;;10.20;99.90;;;;;;5034227;28;20298;-90
2022/04/17 06:25:02;;;;;;;5.03;3.30;;;10.10;99.90;;;;;;5050308;28;20298;-86
2022/04/17 06:27:39;;;;;;;3.33;2.70;;;10.20;99.90;;;;;;5066883;28;20217;-85
2022/04/17 06:30:07;;;;;;;3.73;3.10;;;10.20;99.90;;;;;;5068173;28;20224;-91
2022/04/17 06:32:33;;;;;;;4.77;3.37;;;10.10;99.90;;;;;;5064958;28;20193;-92
2022/04/17 06:34:59;;;;;;;7.27;2.97;;;10.20;99.90;;;;;;5065573;28;20216;-90
2022/04/17 06:37:25;;;;;;;4.97;2.47;;;10.10;99.90;;;;;;5066579;28;20314;-90
2022/04/17 06:39:50;;;;;;;3.40;3.10;;;9.80;99.90;;;;;;5049813;28;20259;-91
2022/04/17 06:42:16;;;;;;;5.13;2.30;;;9.60;99.90;;;;;;5082000;28;21041;-91
2022/04/17 06:44:42;;;;;;;4.13;2.87;;;9.60;99.90;;;;;;5066132;28;20729;-91
2022/04/17 06:47:07;;;;;;;4.83;3.37;;;9.70;99.90;;;;;;5066565;28;20205;-90
2022/04/17 06:49:33;;;;;;;4.47;3.40;;;10.50;99.90;;;;;;5048801;28;20217;-90
2022/04/17 06:51:59;;;;;;;5.60;3.57;;;10.70;99.90;;;;;;5032787;28;20217;-90
2022/04/17 06:54:24;;;;;;;2.63;2.00;;;11.40;99.90;;;;;;5065911;28;20308;-90
2022/04/17 06:56:50;;;;;;;2.73;2.47;;;10.90;99.90;;;;;;5048360;28;21043;-90
2022/04/17 06:59:16;;;;;;;2.67;1.77;;;11.00;99.90;;;;;;5046875;28;20708;-90
2022/04/17 07:01:43;;;;;;;3.13;2.47;;;11.30;99.90;;;;;;5081106;28;20248;-91
2022/04/17 07:04:08;;;;;;;3.57;3.17;;;11.10;99.90;;;;;;5065835;28;20370;-90
2022/04/17 07:06:34;;;;;;;2.00;1.90;;;11.50;99.90;;;;;;5065345;28;20731;-90
2022/04/17 07:09:00;;;;;;;4.20;3.30;;;11.40;99.90;;;;;;5048033;28;20247;-91
2022/04/17 07:11:27;;;;;;;2.53;1.60;;;11.80;99.90;;;;;;5081946;28;20601;-90
2022/04/17 07:13:53;;;;;;;5.70;3.83;;;11.40;99.90;;;;;;5049891;28;20701;-90
2022/04/17 07:16:19;;;;;;;2.53;2.30;;;11.50;99.90;;;;;;5081901;28;20239;-91
2022/04/17 07:18:45;;;;;;;3.47;2.00;;;11.80;99.90;;;;;;5062988;28;20326;-91
2022/04/17 07:21:10;;;;;;;2.53;2.30;;;11.70;99.90;;;;;;5063575;28;21072;-91
2022/04/17 07:23:36;;;;;;;3.33;2.63;;;11.80;99.90;;;;;;5065214;28;20317;-91
2022/04/17 07:26:02;;;;;;;5.67;3.33;;;11.90;99.90;;;;;;5082776;28;20227;-91
2022/04/17 07:28:27;;;;;;;2.27;1.77;;;11.90;99.90;;;;;;5048496;28;20225;-91
2022/04/17 07:30:53;;;;;;;2.57;2.37;;;12.30;99.90;;;;;;5079273;28;20241;-91
2022/04/17 07:33:19;;;;;;;5.20;4.20;;;12.80;99.90;;;;;;5080255;28;20752;-91
2022/04/17 07:35:45;;;;;;;4.60;3.27;;;13.00;99.90;;;;;;5063890;28;20237;-91
2022/04/17 07:38:10;;;;;;;4.63;2.97;;;13.70;99.90;;;;;;5063936;28;20189;-91
2022/04/17 07:40:36;;;;;;;4.03;2.70;;;13.50;99.90;;;;;;5047338;28;20220;-90
2022/04/17 07:43:05;;;;;;;6.03;3.80;;;13.00;99.90;;;;;;5080929;28;20220;-91
2022/04/17 07:45:33;;;;;;;4.20;2.43;;;13.40;99.90;;;;;;5065487;28;20225;-91
2022/04/17 07:47:59;;;;;;;3.93;3.23;;;13.30;99.90;;;;;;5064632;28;20217;-88
2022/04/17 07:50:27;;;;;;;3.77;2.50;;;13.30;99.90;;;;;;5048107;28;20645;-89
2022/04/17 07:52:54;;;;;;;3.33;2.53;;;13.40;99.90;;;;;;5080677;28;20185;-91
2022/04/17 07:55:21;;;;;;;2.43;2.00;;;13.50;99.90;;;;;;5046972;28;20369;-92
2022/04/17 07:58:03;;;;;;;4.37;3.27;;;13.80;99.90;;;;;;5080819;28;20232;-90
2022/04/17 08:00:45;;;;;;;3.53;2.43;;;13.70;99.90;;;;;;5065126;28;20221;-91
2022/04/17 08:05:57;;;;;;;5.77;3.10;;;13.80;99.90;;;;;;5065415;28;20225;-91
2022/04/17 08:08:23;;;;;;;7.03;2.63;;;13.90;99.90;;;;;;5062568;28;20200;-91
2022/04/17 08:10:49;;;;;;;6.20;4.20;;;13.40;99.90;;;;;;5064281;28;20186;-89
2022/04/17 08:13:15;;;;;;;2.23;1.83;;;13.90;99.90;;;;;;5061488;28;20989;-89
2022/04/17 08:15:41;;;;;;;6.07;3.63;;;13.80;99.90;;;;;;5077996;28;20389;-91
2022/04/17 08:18:07;;;;;;;4.23;2.67;;;13.90;99.90;;;;;;5042786;28;20764;-91
2022/04/17 08:20:33;;;;;;;9.43;4.37;;;14.30;99.90;;;;;;5078553;28;20205;-89
2022/04/17 08:22:58;;;;;;;5.07;3.57;;;14.30;99.90;;;;;;5065723;28;20197;-90
2022/04/17 08:25:24;;;;;;;4.20;2.77;;;14.80;99.90;;;;;;5063087;28;20733;-90
2022/04/17 08:27:51;;;;;;;5.37;4.00;;;16.50;99.90;;;;;;5046155;28;20578;-90
2022/04/17 08:30:21;;;;;;;5.27;2.90;;;17.00;99.90;;;;;;5063211;28;20229;-91
2022/04/17 08:32:47;;;;;;;5.37;3.17;;;16.60;99.90;;;;;;5061204;28;20216;-90
2022/04/17 08:35:13;;;;;;;5.23;3.43;;;14.70;99.90;;;;;;5063222;28;20215;-91
2022/04/17 08:37:39;;;;;;;2.47;2.23;;;15.30;99.90;;;;;;5046211;28;20255;-89
2022/04/17 08:40:05;;;;;;;3.63;3.27;;;15.00;99.90;;;;;;5045250;28;20217;-90
2022/04/17 08:42:32;;;;;;;5.17;3.30;;;15.40;99.90;;;;;;5045935;28;20758;-90
2022/04/17 08:44:58;;;;;;;4.57;3.03;;;16.30;99.90;;;;;;5053987;28;20225;-90
2022/04/17 08:47:25;;;;;;;3.00;2.30;;;17.00;99.90;;;;;;5063352;28;20197;-89
2022/04/17 08:49:54;;;;;;;3.60;2.57;;;15.80;99.90;;;;;;5064684;28;20209;-90
2022/04/17 08:52:21;;;;;;;3.53;2.93;;;15.00;99.90;;;;;;5062189;28;20217;-89
2022/04/17 08:54:47;;;;;;;4.00;3.67;;;14.80;99.90;;;;;;5063080;28;20279;-89
2022/04/17 08:57:12;;;;;;;5.43;3.87;;;15.60;99.90;;;;;;5078637;28;20260;-89
2022/04/17 08:59:38;;;;;;;4.50;2.60;;;16.90;99.90;;;;;;5062165;28;21110;-90
2022/04/17 09:02:10;;;;;;;3.87;2.63;;;16.20;99.90;;;;;;5063921;28;20197;-91
2022/04/17 09:04:38;;;;;;;4.17;3.13;;;15.50;99.90;;;;;;5063334;28;20217;-90
2022/04/17 09:07:12;;;;;;;3.63;2.50;;;14.80;99.90;;;;;;5036308;28;20298;-91
2022/04/17 09:09:40;;;;;;;5.73;3.07;;;14.60;99.90;;;;;;5062454;28;20234;-90
2022/04/17 09:12:06;;;;;;;5.37;3.50;;;15.20;99.90;;;;;;5079766;28;20177;-90
2022/04/17 09:14:38;;;;;;;3.23;2.20;;;15.20;99.90;;;;;;5079264;28;20659;-90
2022/04/17 09:17:10;;;;;;;3.90;2.90;;;15.50;99.90;;;;;;5061991;28;20229;-89
2022/04/17 09:19:36;;;;;;;2.97;2.53;;;15.30;99.90;;;;;;5062440;28;20609;-90
2022/04/17 09:22:02;;;;;;;4.27;3.33;;;15.10;99.90;;;;;;5061732;28;20298;-89
2022/04/17 09:24:28;;;;;;;3.37;2.33;;;14.90;99.90;;;;;;5061746;28;20304;-89
2022/04/17 09:26:58;;;;;;;3.57;2.90;;;15.10;99.90;;;;;;5029746;28;20199;-90
2022/04/17 09:29:26;;;;;;;4.10;3.70;;;15.20;99.90;;;;;;5045327;28;20217;-91
2022/04/17 09:32:00;;;;;;;6.80;3.57;;;15.00;99.90;;;;;;5045721;28;20217;-92
2022/04/17 09:34:28;;;;;;;6.03;3.30;;;15.10;99.90;;;;;;5063376;28;20856;-90
2022/04/17 09:36:58;;;;;;;6.07;3.10;;;16.20;99.90;;;;;;5063328;28;20237;-92
2022/04/17 09:39:31;;;;;;;3.73;2.50;;;16.10;99.90;;;;;;5045185;28;20240;-90
2022/04/17 09:41:59;;;;;;;6.20;3.70;;;15.10;99.90;;;;;;5045944;28;20738;-90
2022/04/17 09:44:35;;;;;;;5.13;3.20;;;15.00;99.90;;;;;;5061579;28;20225;-89
2022/04/17 09:47:02;;;;;;;3.03;2.70;;;16.70;99.90;;;;;;5062500;28;20712;-90
2022/04/17 09:49:27;;;;;;;5.73;2.87;;;16.00;99.90;;;;;;5061890;28;20231;-89
2022/04/17 09:52:07;;;;;;;6.40;3.47;;;15.50;99.90;;;;;;5063141;28;20221;-89
2022/04/17 09:54:33;;;;;;;3.77;3.03;;;15.70;99.90;;;;;;5048272;28;20277;-89
2022/04/17 09:56:58;;;;;;;5.67;2.90;;;15.10;99.90;;;;;;5049807;28;20221;-88
2022/04/17 09:59:24;;;;;;;3.80;3.20;;;15.30;99.90;;;;;;5066335;28;20736;-87
2022/04/17 10:01:57;;;;;;;5.23;2.77;;;15.40;99.90;;;;;;5064425;28;20220;-86
2022/04/17 10:04:24;;;;;;;3.87;3.07;;;15.70;99.90;;;;;;5048283;28;20221;-89
2022/04/17 10:06:55;;;;;;;3.87;3.13;;;15.80;99.90;;;;;;5081462;28;20221;-90
2022/04/17 10:09:21;;;;;;;5.13;3.37;;;15.70;99.90;;;;;;5065955;28;20200;-90
2022/04/17 10:11:49;;;;;;;5.23;3.33;;;15.90;99.90;;;;;;5050249;28;20250;-87
2022/04/17 10:14:15;;;;;;;3.33;3.03;;;16.10;99.90;;;;;;5025641;28;20308;-89
2022/04/17 10:16:43;;;;;;;5.83;3.60;;;16.60;99.90;;;;;;5040365;28;20240;-88
2022/04/17 10:19:14;;;;;;;5.83;2.93;;;15.90;99.90;;;;;;5048356;28;20233;-87
2022/04/17 10:21:40;;;;;;;2.83;2.60;;;16.20;99.90;;;;;;5066216;28;20217;-88
2022/04/17 10:24:10;;;;;;;4.53;3.20;;;16.20;99.90;;;;;;5048048;28;20276;-87
2022/04/17 10:26:48;;;;;;;4.83;3.00;;;16.30;99.90;;;;;;5066818;28;20239;-88
2022/04/17 10:29:20;;;;;;;2.57;2.37;;;16.40;99.90;;;;;;5048031;28;20217;-89
2022/04/17 10:32:16;;;;;;;3.23;2.63;;;17.00;99.90;;;;;;5048751;28;20298;-88
2022/04/17 10:34:57;;;;;;;4.20;3.23;;;16.90;99.90;;;;;;5048156;28;20311;-89
2022/04/17 10:37:36;;;;;;;3.13;2.57;;;16.30;99.90;;;;;;5065923;28;21063;-89
2022/04/17 10:40:02;;;;;;;4.57;2.80;;;16.20;99.90;;;;;;5065122;28;20213;-88
2022/04/17 10:42:35;;;;;;;4.70;2.93;;;17.30;99.90;;;;;;5048074;28;20941;-89
2022/04/17 10:45:07;;;;;;;2.87;2.60;;;17.00;99.90;;;;;;5066753;28;20197;-87
2022/04/17 10:47:33;;;;;;;3.33;2.70;;;17.00;99.00;;;;;;5083235;28;20553;-88
2022/04/17 10:50:01;;;;;;;4.00;2.63;;;17.40;98.00;;;;;;5081632;28;20212;-88
2022/04/17 10:52:31;;;;;;;3.87;3.43;;;17.10;99.90;;;;;;5031734;28;20228;-86
2022/04/17 10:55:18;;;;;;;5.07;2.93;;;16.40;99.90;;;;;;5064650;28;20296;-87
2022/04/17 10:57:45;;;;;;;5.33;3.43;;;16.50;99.90;;;;;;5032699;28;21126;-90
2022/04/17 11:00:28;;;;;;;3.47;3.07;;;16.60;99.90;;;;;;5064735;28;20197;-88
2022/04/17 11:02:58;;;;;;;4.03;2.20;;;16.50;97.60;;;;;;5048884;28;20180;-88
2022/04/17 11:06:09;;;;;;;2.50;2.30;;;15.90;98.40;;;;;;5047181;28;20225;-88
2022/04/17 11:08:48;;;;;;;3.47;2.73;;;15.60;99.90;;;;;;5047127;28;20673;-85
2022/04/17 11:11:14;;;;;;;1.70;1.60;;;15.80;99.90;;;;;;5065964;28;20252;-87
2022/04/17 11:14:13;;;;;;;1.73;1.60;;;15.80;98.00;;;;;;5048546;28;20237;-88
2022/04/17 11:16:48;;;;;;;4.37;2.50;;;15.30;99.90;;;;;;5065604;28;20260;-87
2022/04/17 11:19:25;;;;;;;2.07;1.40;;;15.60;99.90;;;;;;5064357;28;20243;-87
2022/04/17 11:21:53;;;;;;;2.50;2.30;;;15.70;99.90;;;;;;5062894;28;20216;-87
2022/04/17 11:24:20;;;;;;;3.47;2.30;;;15.70;99.10;;;;;;5062246;28;20186;-87
2022/04/17 11:26:52;;;;;;;4.23;2.60;;;16.20;97.70;;;;;;5063368;28;20533;-87
2022/04/17 11:29:50;;;;;;;3.53;2.37;;;16.30;99.40;;;;;;5060708;28;20233;-88
2022/04/17 11:32:18;;;;;;;4.33;2.77;;;16.60;98.60;;;;;;5058158;28;20279;-86
2022/04/17 11:34:55;;;;;;;4.63;2.80;;;16.30;99.90;;;;;;5062294;28;20233;-88
2022/04/17 11:37:26;;;;;;;3.20;2.50;;;16.70;99.80;;;;;;5045136;28;20229;-87
2022/04/17 11:39:54;;;;;;;3.80;2.50;;;16.30;98.60;;;;;;5061180;28;20217;-87
2022/04/17 11:42:20;;;;;;;3.53;2.43;;;15.70;99.70;;;;;;5062565;28;20331;-87
2022/04/17 11:44:48;;;;;;;3.63;3.20;;;15.60;99.90;;;;;;5078471;28;20274;-86
2022/04/17 11:47:17;;;;;;;6.60;3.17;;;15.80;99.90;;;;;;5028197;28;20221;-87
2022/04/17 11:49:44;;;;;;;3.87;2.90;;;16.00;99.90;;;;;;5063307;28;20279;-87
2022/04/17 11:52:14;;;;;;;3.43;2.27;;;16.20;99.90;;;;;;5063175;28;20225;-87
2022/04/17 11:54:40;;;;;;;2.97;2.43;;;16.10;99.90;;;;;;5063512;28;20213;-87
2022/04/17 11:57:07;;;;;;;4.93;2.87;;;16.20;98.10;;;;;;5045422;28;20236;-86
2022/04/17 11:59:54;;;;;;;3.03;2.73;;;16.20;99.90;;;;;;5063425;28;20308;-86
2022/04/17 12:02:21;;;;;;;4.70;2.23;;;16.40;99.20;;;;;;5062415;28;20213;-87
2022/04/17 12:04:49;;;;;;;6.83;2.23;;;16.10;99.50;;;;;;5062480;28;20221;-88
2022/04/17 12:07:23;;;;;;;6.17;2.87;;;16.10;99.90;;;;;;5061730;28;20241;-88
2022/04/17 12:09:50;;;;;;;3.93;2.17;;;16.20;99.90;;;;;;5077461;28;20468;-86
2022/04/17 12:12:19;;;;;;;3.47;2.60;;;16.00;99.90;;;;;;5077328;28;20239;-86
2022/04/17 12:14:52;;;;;;;5.00;2.63;;;15.90;99.90;;;;;;5030786;28;20268;-87
2022/04/17 12:17:21;;;;;;;3.23;2.50;;;16.20;99.90;;;;;;5043598;28;20238;-86
2022/04/17 12:19:50;;;;;;;3.73;2.40;;;16.20;99.90;;;;;;5062409;28;20229;-87
2022/04/17 12:22:18;;;;;;;4.13;2.43;;;16.20;99.90;;;;;;5078751;28;20806;-87
2022/04/17 12:24:47;;;;;;;5.00;2.33;;;16.60;99.90;;;;;;5061667;28;20346;-88
2022/04/17 12:27:25;;;;;;;1.83;1.73;;;16.60;99.90;;;;;;5079337;28;20272;-90
2022/04/17 12:29:52;;;;;;;2.70;1.83;;;16.40;97.10;;;;;;5060996;28;20551;-88
2022/04/17 12:32:22;;;;;;;1.83;1.70;;;16.20;99.90;;;;;;5064605;28;20232;-88
2022/04/17 12:35:04;;;;;;;2.83;2.10;;;16.00;99.90;;;;;;5063780;28;20213;-88
2022/04/17 12:37:33;;;;;;;3.13;1.73;;;16.20;99.50;;;;;;5079818;28;20260;-88
2022/04/17 12:40:13;;;;;;;2.93;1.60;;;16.30;99.90;;;;;;5060221;28;20267;-89
2022/04/17 12:42:40;;;;;;;2.77;2.10;;;16.20;97.90;;;;;;5046726;28;20213;-88
2022/04/17 12:45:08;;;;;;;4.20;2.53;;;16.30;99.90;;;;;;5062764;28;20189;-88
2022/04/17 12:47:36;;;;;;;3.40;2.40;;;16.60;98.90;;;;;;5046259;28;20627;-89
2022/04/17 12:50:11;;;;;;;3.00;2.23;;;16.70;99.60;;;;;;5045939;28;20241;-88
2022/04/17 12:52:37;;;;;;;2.97;2.30;;;16.50;99.40;;;;;;5054548;28;20251;-87
2022/04/17 12:55:10;;;;;;;4.07;2.77;;;16.40;99.90;;;;;;5064089;28;20313;-88
2022/04/17 12:57:37;;;;;;;4.00;2.53;;;16.60;99.90;;;;;;5056015;28;20229;-88
2022/04/17 13:00:14;;;;;;;3.53;2.50;;;16.60;99.90;;;;;;5028669;28;20991;-84
2022/04/17 13:02:41;;;;;;;4.13;2.20;;;16.50;99.90;;;;;;5064330;28;20193;-89
2022/04/17 13:05:07;;;;;;;2.77;1.70;;;16.70;99.90;;;;;;5062806;28;20217;-88
2022/04/17 13:07:35;;;;;;;2.57;1.93;;;16.40;99.90;;;;;;5045209;28;20240;-87
2022/04/17 13:10:03;;;;;;;2.57;2.10;;;16.50;99.90;;;;;;5060917;28;20324;-89
2022/04/17 13:12:47;;;;;;;2.80;1.83;;;16.60;99.90;;;;;;5056687;28;20263;-89
2022/04/17 13:15:16;;;;;;;3.87;2.57;;;16.80;99.80;;;;;;5079535;28;21080;-87